createdAt,value
2022-11-18T00:01:32.021Z,100.00
2022-11-18T00:04:02.047Z,100.00
2022-11-18T00:06:31.818Z,100.00
2022-11-18T00:09:01.200Z,100.00
2022-11-18T00:11:48.411Z,100.00
2022-11-18T00:14:23.437Z,100.00
2022-11-18T00:16:54.952Z,100.00
2022-11-18T00:19:28.375Z,100.00
2022-11-18T00:21:56.995Z,100.00
2022-11-18T00:24:26.438Z,100.00
2022-11-18T00:26:55.484Z,100.00
2022-11-18T00:29:26.281Z,100.00
2022-11-18T00:31:54.650Z,100.00
2022-11-18T00:34:25.129Z,100.00
2022-11-18T00:36:53.522Z,100.00
2022-11-18T00:39:22.885Z,100.00
2022-11-18T00:42:08.985Z,100.00
2022-11-18T00:44:37.394Z,100.00
2022-11-18T00:47:06.470Z,100.00
2022-11-18T00:49:36.303Z,100.00
2022-11-18T00:52:05.512Z,100.00
2022-11-18T00:54:33.913Z,100.00
2022-11-18T00:57:02.215Z,100.00
2022-11-18T00:59:30.571Z,100.00
2022-11-18T01:01:59.099Z,100.00
2022-11-18T01:04:27.555Z,100.00
2022-11-18T01:06:57.311Z,100.00
2022-11-18T01:09:25.748Z,100.00
2022-11-18T01:12:11.695Z,100.00
2022-11-18T01:14:40.118Z,100.00
2022-11-18T01:17:08.544Z,100.00
2022-11-18T01:19:36.993Z,100.00
2022-11-18T01:22:06.807Z,100.00
2022-11-18T01:24:35.967Z,100.00
2022-11-18T01:27:04.543Z,100.00
2022-11-18T01:29:32.943Z,100.00
2022-11-18T01:32:23.248Z,100.00
2022-11-18T01:34:49.684Z,100.00
2022-11-18T01:37:19.411Z,100.00
2022-11-18T01:39:47.824Z,100.00
2022-11-18T01:42:18.922Z,100.00
2022-11-18T01:45:12.050Z,100.00
2022-11-18T01:47:46.591Z,100.00
2022-11-18T01:50:17.534Z,100.00
2022-11-18T01:52:51.642Z,100.00
2022-11-18T01:55:25.923Z,100.00
2022-11-18T01:58:00.762Z,100.00
2022-11-18T02:00:29.280Z,100.00
2022-11-18T02:02:58.802Z,100.00
2022-11-18T02:05:27.821Z,100.00
2022-11-18T02:07:57.955Z,100.00
2022-11-18T02:10:26.476Z,100.00
2022-11-18T02:12:56.055Z,100.00
2022-11-18T02:15:39.094Z,100.00
2022-11-18T02:18:22.091Z,100.00
2022-11-18T02:20:56.599Z,100.00
2022-11-18T02:24:27.954Z,100.00
2022-11-18T02:27:46.813Z,100.00
2022-11-18T02:30:18.565Z,100.00
2022-11-18T02:32:55.221Z,100.00
2022-11-18T02:35:31.236Z,100.00
2022-11-18T02:38:04.589Z,100.00
2022-11-18T02:40:38.147Z,100.00
2022-11-18T02:43:12.336Z,100.00
2022-11-18T02:45:47.745Z,100.00
2022-11-18T02:48:17.996Z,100.00
2022-11-18T02:50:48.122Z,100.00
2022-11-18T02:53:21.336Z,100.00
2022-11-18T02:55:51.091Z,100.00
2022-11-18T02:58:22.148Z,100.00
2022-11-18T03:00:56.783Z,100.00
2022-11-18T03:03:29.038Z,100.00
2022-11-18T03:06:09.770Z,100.00
2022-11-18T03:08:44.047Z,100.00
2022-11-18T03:11:19.403Z,100.00
2022-11-18T03:14:07.350Z,100.00
2022-11-18T03:16:41.922Z,100.00
2022-11-18T03:19:20.254Z,100.00
2022-11-18T03:21:59.109Z,100.00
2022-11-18T03:24:32.664Z,100.00
2022-11-18T03:27:08.855Z,100.00
2022-11-18T03:29:41.539Z,100.00
2022-11-18T03:32:18.820Z,100.00
2022-11-18T03:34:50.681Z,100.00
2022-11-18T03:37:22.416Z,100.00
2022-11-18T03:39:55.416Z,100.00
2022-11-18T03:42:28.965Z,100.00
2022-11-18T03:45:02.653Z,100.00
2022-11-18T03:47:37.137Z,100.00
2022-11-18T03:50:14.912Z,100.00
2022-11-18T03:52:44.902Z,100.00
2022-11-18T03:55:19.175Z,100.00
2022-11-18T03:57:53.283Z,100.00
2022-11-18T04:00:21.868Z,100.00
2022-11-18T04:02:53.352Z,100.00
2022-11-18T04:05:22.188Z,100.00
2022-11-18T04:07:59.090Z,100.00
2022-11-18T04:10:32.676Z,100.00
2022-11-18T04:13:07.049Z,100.00
2022-11-18T04:15:38.306Z,100.00
2022-11-18T04:18:08.531Z,100.00
2022-11-18T04:20:38.032Z,100.00
2022-11-18T04:23:06.928Z,100.00
2022-11-18T04:25:35.781Z,100.00
2022-11-18T04:28:04.595Z,100.00
2022-11-18T04:30:33.344Z,100.00
2022-11-18T04:33:02.891Z,100.00
2022-11-18T04:35:32.627Z,100.00
2022-11-18T04:38:01.002Z,100.00
2022-11-18T04:40:29.320Z,100.00
2022-11-18T04:42:57.707Z,100.00
2022-11-18T04:45:26.126Z,100.00
2022-11-18T04:47:58.806Z,100.00
2022-11-18T04:50:30.542Z,100.00
2022-11-18T04:53:00.308Z,100.00
2022-11-18T04:55:31.560Z,100.00
2022-11-18T04:57:59.931Z,100.00
2022-11-18T05:00:28.328Z,100.00
2022-11-18T05:02:56.830Z,100.00
2022-11-18T05:05:25.292Z,100.00
2022-11-18T05:07:53.782Z,100.00
2022-11-18T05:10:23.594Z,100.00
2022-11-18T05:12:51.862Z,100.00
2022-11-18T05:15:24.021Z,100.00
2022-11-18T05:17:52.491Z,100.00
2022-11-18T05:20:21.590Z,100.00
2022-11-18T05:22:49.962Z,100.00
2022-11-18T05:25:18.457Z,100.00
2022-11-18T05:27:48.232Z,100.00
2022-11-18T05:30:16.766Z,100.00
2022-11-18T05:32:45.151Z,100.00
2022-11-18T05:35:13.604Z,100.00
2022-11-18T05:37:41.949Z,100.00
2022-11-18T05:40:12.315Z,100.00
2022-11-18T05:42:58.488Z,100.00
2022-11-18T05:45:28.398Z,100.00
2022-11-18T05:48:04.597Z,100.00
2022-11-18T05:50:35.598Z,100.00
2022-11-18T05:53:05.123Z,100.00
2022-11-18T05:55:39.738Z,100.00
2022-11-18T05:58:08.367Z,100.00
2022-11-18T06:00:38.368Z,100.00
2022-11-18T06:03:15.118Z,100.00
2022-11-18T06:05:43.852Z,100.00
2022-11-18T06:08:14.406Z,100.00
2022-11-18T06:10:44.688Z,100.00
2022-11-18T06:13:21.213Z,100.00
2022-11-18T06:15:51.368Z,100.00
2022-11-18T06:18:24.421Z,100.00
2022-11-18T06:20:55.443Z,100.00
2022-11-18T06:23:24.171Z,100.00
2022-11-18T06:25:52.836Z,100.00
2022-11-18T06:28:22.891Z,100.00
2022-11-18T06:30:52.658Z,100.00
2022-11-18T06:33:21.069Z,100.00
2022-11-18T06:35:49.613Z,100.00
2022-11-18T06:38:19.122Z,100.00
2022-11-18T06:40:47.757Z,100.00
2022-11-18T06:43:33.741Z,100.00
2022-11-18T06:46:22.626Z,100.00
2022-11-18T06:48:52.740Z,100.00
2022-11-18T06:51:21.265Z,100.00
2022-11-18T06:53:49.926Z,100.00
2022-11-18T06:56:20.696Z,100.00
2022-11-18T06:58:49.425Z,100.00
2022-11-18T07:01:22.315Z,100.00
2022-11-18T07:03:51.341Z,100.00
2022-11-18T07:06:23.210Z,100.00
2022-11-18T07:08:52.825Z,100.00
2022-11-18T07:11:23.350Z,100.00
2022-11-18T07:13:52.133Z,100.00
2022-11-18T07:16:24.016Z,100.00
2022-11-18T07:18:54.769Z,100.00
2022-11-18T07:21:25.227Z,100.00
2022-11-18T07:23:58.004Z,100.00
2022-11-18T07:26:26.516Z,100.00
2022-11-18T07:28:55.667Z,100.00
2022-11-18T07:31:25.513Z,100.00
2022-11-18T07:33:54.736Z,100.00
2022-11-18T07:36:27.788Z,100.00
2022-11-18T07:39:02.141Z,100.00
2022-11-18T07:41:31.648Z,100.00
2022-11-18T07:44:02.629Z,100.00
2022-11-18T07:46:34.548Z,100.00
2022-11-18T07:49:05.665Z,100.00
2022-11-18T07:51:37.145Z,100.00
2022-11-18T07:54:08.589Z,100.00
2022-11-18T07:56:37.219Z,100.00
2022-11-18T07:59:06.318Z,100.00
2022-11-18T08:01:36.559Z,100.00
2022-11-18T08:04:10.376Z,100.00
2022-11-18T08:06:39.597Z,100.00
2022-11-18T08:09:09.773Z,100.00
2022-11-18T08:11:38.504Z,100.00
2022-11-18T08:14:06.939Z,100.00
2022-11-18T08:16:36.860Z,100.00
2022-11-18T08:19:05.395Z,100.00
2022-11-18T08:21:33.784Z,100.00
2022-11-18T08:24:02.343Z,100.00
2022-11-18T08:26:30.790Z,100.00
2022-11-18T08:29:00.452Z,100.00
2022-11-18T08:31:30.721Z,100.00
2022-11-18T08:34:02.629Z,100.00
2022-11-18T08:36:33.347Z,100.00
2022-11-18T08:39:04.972Z,100.00
2022-11-18T08:41:37.124Z,100.00
2022-11-18T08:44:07.869Z,100.00
2022-11-18T08:46:36.460Z,100.00
2022-11-18T08:49:06.380Z,100.00
2022-11-18T08:51:35.026Z,100.00
2022-11-18T08:54:03.530Z,100.00
2022-11-18T08:56:32.247Z,100.00
2022-11-18T08:59:00.726Z,100.00
2022-11-18T09:01:29.202Z,100.00
2022-11-18T09:03:57.925Z,100.00
2022-11-18T09:06:27.885Z,100.00
2022-11-18T09:08:56.456Z,100.00
2022-11-18T09:11:27.341Z,100.00
2022-11-18T09:16:46.671Z,100.00
2022-11-18T09:19:46.812Z,100.00
2022-11-18T09:22:07.546Z,100.00
2022-11-18T09:24:36.832Z,100.00
2022-11-18T09:27:10.770Z,100.00
2022-11-18T09:29:42.270Z,100.00
2022-11-18T09:32:10.691Z,100.00
2022-11-18T09:34:39.157Z,100.00
2022-11-18T09:37:08.980Z,100.00
2022-11-18T09:39:37.906Z,100.00
2022-11-18T09:42:33.628Z,100.00
2022-11-18T09:45:20.728Z,100.00
2022-11-18T09:47:52.780Z,100.00
2022-11-18T09:53:21.499Z,100.00
2022-11-18T09:55:51.909Z,100.00
2022-11-18T09:58:31.050Z,100.00
2022-11-18T10:00:59.764Z,100.00
2022-11-18T10:03:30.309Z,100.00
2022-11-18T10:06:07.128Z,100.00
2022-11-18T10:08:47.133Z,100.00
2022-11-18T10:11:19.298Z,100.00
2022-11-18T10:14:01.258Z,100.00
2022-11-18T10:16:43.686Z,100.00
2022-11-18T10:19:27.400Z,100.00
2022-11-18T10:22:16.732Z,100.00
2022-11-18T10:24:53.481Z,100.00
2022-11-18T10:27:22.858Z,100.00
2022-11-18T10:29:57.197Z,100.00
2022-11-18T10:32:25.944Z,100.00
2022-11-18T10:34:57.667Z,100.00
2022-11-18T10:37:45.821Z,100.00
2022-11-18T10:40:29.894Z,100.00
2022-11-18T10:42:58.652Z,100.00
2022-11-18T10:45:30.378Z,100.00
2022-11-18T10:48:02.422Z,100.00
2022-11-18T10:50:35.424Z,100.00
2022-11-18T10:53:04.462Z,100.00
2022-11-18T10:55:35.157Z,100.00
2022-11-18T10:58:10.745Z,100.00
2022-11-18T11:00:43.597Z,100.00
2022-11-18T11:03:36.707Z,100.00
2022-11-18T11:06:43.859Z,100.00
2022-11-18T11:09:26.604Z,100.00
2022-11-18T11:12:03.480Z,100.00
2022-11-18T11:14:41.039Z,100.00
2022-11-18T11:17:14.638Z,100.00
2022-11-18T11:19:50.478Z,100.00
2022-11-18T11:22:19.412Z,100.00
2022-11-18T11:24:48.485Z,100.00
2022-11-18T11:30:28.214Z,100.00
2022-11-18T11:33:24.140Z,100.00
2022-11-18T11:36:05.961Z,100.00
2022-11-18T11:38:48.447Z,100.00
2022-11-18T11:41:24.301Z,100.00
2022-11-18T11:44:21.406Z,100.00
2022-11-18T11:47:23.568Z,100.00
2022-11-18T11:49:57.755Z,100.00
2022-11-18T11:52:36.135Z,100.00
2022-11-18T11:55:18.540Z,100.00
2022-11-18T11:58:18.656Z,100.00
2022-11-18T12:00:59.201Z,100.00
2022-11-18T12:03:51.773Z,100.00
2022-11-18T12:06:20.806Z,100.00
2022-11-18T12:09:04.536Z,100.00
2022-11-18T12:11:40.166Z,100.00
2022-11-18T12:14:16.671Z,100.00
2022-11-18T12:16:53.955Z,100.00
2022-11-18T12:19:24.365Z,100.00
2022-11-18T12:22:04.057Z,100.00
2022-11-18T12:24:43.610Z,100.00
2022-11-18T12:27:16.537Z,100.00
2022-11-18T12:29:57.723Z,100.00
2022-11-18T12:32:42.750Z,98.45
2022-11-18T12:35:28.847Z,98.03
2022-11-18T12:38:03.980Z,97.61
2022-11-18T12:40:39.421Z,96.85
2022-11-18T12:43:48.734Z,97.49
2022-11-18T12:46:52.229Z,97.19
2022-11-18T12:50:15.035Z,97.71
2022-11-18T12:52:54.997Z,96.54
2022-11-18T12:55:32.170Z,95.68
2022-11-18T12:58:00.960Z,96.24
2022-11-18T13:00:52.760Z,95.99
2022-11-18T13:03:32.029Z,97.65
2022-11-18T13:06:15.933Z,97.60
2022-11-18T13:08:44.376Z,97.70
2022-11-18T13:11:36.617Z,96.48
2022-11-18T13:14:24.885Z,90.88
2022-11-18T13:17:10.995Z,89.70
2022-11-18T13:19:39.626Z,91.30
2022-11-18T13:22:37.414Z,92.66
2022-11-18T13:25:06.205Z,92.87
2022-11-18T13:27:53.370Z,95.08
2022-11-18T13:30:22.551Z,94.70
2022-11-18T13:32:51.639Z,95.97
2022-11-18T13:35:22.993Z,95.40
2022-11-18T13:37:56.387Z,96.49
2022-11-18T13:40:28.798Z,95.55
2022-11-18T13:42:57.522Z,98.73
2022-11-18T13:45:29.610Z,98.28
2022-11-18T13:48:06.900Z,96.96
2022-11-18T13:50:38.801Z,95.04
2022-11-18T13:53:19.918Z,95.25
2022-11-18T13:55:52.589Z,96.14
2022-11-18T13:59:02.814Z,94.63
2022-11-18T14:01:29.389Z,92.92
2022-11-18T14:04:00.736Z,90.78
2022-11-18T14:06:31.404Z,88.35
2022-11-18T14:09:25.141Z,87.23
2022-11-18T14:12:03.139Z,88.13
2022-11-18T14:14:34.464Z,88.09
2022-11-18T14:17:18.348Z,88.54
2022-11-18T14:19:47.925Z,88.25
2022-11-18T14:22:19.850Z,88.78
2022-11-18T14:24:58.002Z,89.12
2022-11-18T14:27:38.508Z,89.13
2022-11-18T14:30:36.797Z,91.02
2022-11-18T14:33:26.459Z,91.65
2022-11-18T14:35:58.164Z,90.49
2022-11-18T14:38:48.184Z,90.77
2022-11-18T14:41:44.919Z,89.88
2022-11-18T14:44:14.464Z,89.66
2022-11-18T14:46:47.115Z,90.32
2022-11-18T14:49:19.827Z,89.88
2022-11-18T14:51:48.809Z,91.50
2022-11-18T14:54:25.390Z,91.22
2022-11-18T14:56:59.863Z,92.65
2022-11-18T14:59:28.640Z,91.65
2022-11-18T15:01:58.577Z,92.00
2022-11-18T15:04:27.254Z,91.64
2022-11-18T15:06:56.229Z,91.84
2022-11-18T15:09:24.999Z,91.92
2022-11-18T15:11:53.405Z,92.67
2022-11-18T15:14:23.148Z,91.91
2022-11-18T15:16:51.542Z,91.13
2022-11-18T15:19:19.949Z,92.02
2022-11-18T15:21:48.440Z,91.97
2022-11-18T15:24:17.186Z,90.98
2022-11-18T15:26:48.439Z,91.52
2022-11-18T15:29:19.986Z,92.36
2022-11-18T15:31:50.245Z,93.87
2022-11-18T15:34:21.608Z,92.63
2022-11-18T15:36:50.703Z,94.61
2022-11-18T15:39:19.177Z,91.90
2022-11-18T15:41:47.640Z,91.65
2022-11-18T15:44:16.515Z,93.00
2022-11-18T15:46:47.951Z,93.86
2022-11-18T15:49:18.649Z,94.18
2022-11-18T15:51:47.059Z,94.42
2022-11-18T15:54:15.572Z,94.78
2022-11-18T15:56:44.167Z,94.25
2022-11-18T15:59:14.731Z,94.42
2022-11-18T16:01:45.582Z,94.60
2022-11-18T16:04:18.008Z,95.42
2022-11-18T16:06:47.185Z,94.41
2022-11-18T16:09:17.545Z,96.18
2022-11-18T16:12:03.654Z,98.12
2022-11-18T16:14:32.085Z,100.00
2022-11-18T16:17:00.486Z,100.00
2022-11-18T16:19:33.441Z,100.00
2022-11-18T16:22:01.957Z,99.85
2022-11-18T16:24:30.889Z,99.48
2022-11-18T16:26:59.617Z,100.00
2022-11-18T16:29:28.062Z,100.00
2022-11-18T16:31:56.574Z,100.00
2022-11-18T16:34:27.703Z,100.00
2022-11-18T16:37:00.775Z,100.00
2022-11-18T16:39:30.662Z,100.00
2022-11-18T16:42:07.942Z,100.00
2022-11-18T16:44:37.583Z,100.00
2022-11-18T16:47:13.878Z,100.00
2022-11-18T16:49:44.051Z,100.00
2022-11-18T16:52:13.849Z,100.00
2022-11-18T16:54:45.819Z,100.00
2022-11-18T16:57:15.301Z,100.00
2022-11-18T16:59:43.763Z,100.00
2022-11-18T17:02:13.995Z,100.00
2022-11-18T17:04:42.970Z,100.00
2022-11-18T17:07:11.470Z,100.00
2022-11-18T17:09:41.305Z,99.85
2022-11-18T17:12:09.994Z,99.35
2022-11-18T17:14:40.051Z,99.55
2022-11-18T17:17:09.115Z,100.00
2022-11-18T17:19:37.689Z,97.61
2022-11-18T17:22:06.197Z,96.99
2022-11-18T17:24:34.620Z,95.40
2022-11-18T17:27:04.528Z,95.66
2022-11-18T17:29:34.520Z,96.21
2022-11-18T17:32:03.064Z,96.10
2022-11-18T17:34:31.438Z,96.52
2022-11-18T17:37:06.143Z,96.95
2022-11-18T17:39:35.614Z,97.70
2022-11-18T17:42:15.024Z,97.47
2022-11-18T17:44:43.447Z,97.61
2022-11-18T17:47:11.899Z,97.24
2022-11-18T17:49:40.288Z,96.37
2022-11-18T17:52:09.069Z,96.51
2022-11-18T17:54:37.514Z,96.70
2022-11-18T17:57:07.284Z,97.23
2022-11-18T17:59:35.768Z,96.82
2022-11-18T18:02:04.271Z,97.06
2022-11-18T18:04:32.591Z,97.60
2022-11-18T18:07:01.000Z,97.71
2022-11-18T18:09:31.332Z,98.70
2022-11-18T18:12:20.934Z,97.40
2022-11-18T18:14:49.807Z,96.58
2022-11-18T18:17:18.486Z,96.48
2022-11-18T18:19:47.026Z,97.07
2022-11-18T18:22:15.435Z,97.71
2022-11-18T18:24:43.805Z,97.35
2022-11-18T18:27:12.283Z,97.51
2022-11-18T18:29:40.667Z,97.74
2022-11-18T18:32:10.608Z,97.83
2022-11-18T18:34:38.995Z,98.69
2022-11-18T18:37:07.437Z,98.18
2022-11-18T18:39:35.862Z,99.13
2022-11-18T18:42:04.291Z,100.00
2022-11-18T18:44:46.655Z,99.84
2022-11-18T18:47:16.451Z,99.12
2022-11-18T18:49:45.719Z,99.47
2022-11-18T18:52:14.125Z,99.84
2022-11-18T18:54:42.577Z,99.66
2022-11-18T18:57:10.972Z,99.48
2022-11-18T18:59:39.407Z,100.00
2022-11-18T19:02:08.324Z,100.00
2022-11-18T19:04:39.627Z,100.00
2022-11-18T19:07:08.120Z,100.00
2022-11-18T19:09:37.878Z,99.97
2022-11-18T19:12:24.820Z,100.00
2022-11-18T19:14:55.101Z,100.00
2022-11-18T19:17:23.978Z,100.00
2022-11-18T19:20:11.402Z,100.00
2022-11-18T19:22:39.903Z,99.88
2022-11-18T19:25:09.130Z,99.89
2022-11-18T19:27:40.183Z,100.00
2022-11-18T19:30:10.975Z,100.00
2022-11-18T19:32:41.095Z,99.69
2022-11-18T19:35:11.441Z,99.99
2022-11-18T19:37:39.811Z,99.93
2022-11-18T19:40:10.858Z,99.94
2022-11-18T19:42:39.728Z,99.82
2022-11-18T19:45:09.767Z,99.96
2022-11-18T19:47:38.526Z,100.00
2022-11-18T19:50:08.066Z,100.00
2022-11-18T19:52:37.773Z,100.00
2022-11-18T19:55:07.996Z,100.00
2022-11-18T19:57:36.429Z,100.00
2022-11-18T20:00:06.804Z,100.00
2022-11-18T20:02:39.290Z,100.00
2022-11-18T20:05:26.705Z,100.00
2022-11-18T20:07:57.506Z,100.00
2022-11-18T20:10:25.927Z,100.00
2022-11-18T20:12:54.234Z,100.00
2022-11-18T20:15:22.701Z,100.00
2022-11-18T20:17:51.263Z,100.00
2022-11-18T20:20:19.703Z,100.00
2022-11-18T20:22:48.105Z,100.00
2022-11-18T20:25:18.042Z,100.00
2022-11-18T20:27:46.612Z,100.00
2022-11-18T20:30:15.522Z,100.00
2022-11-18T20:32:46.009Z,100.00
2022-11-18T20:35:14.472Z,100.00
2022-11-18T20:37:43.575Z,100.00
2022-11-18T20:40:13.606Z,100.00
2022-11-18T20:43:00.907Z,100.00
2022-11-18T20:45:29.365Z,100.00
2022-11-18T20:47:57.670Z,100.00
2022-11-18T20:50:26.213Z,100.00
2022-11-18T20:52:54.644Z,100.00
2022-11-18T20:55:23.111Z,100.00
2022-11-18T20:57:52.971Z,100.00
2022-11-18T21:00:21.827Z,100.00
2022-11-18T21:02:51.228Z,100.00
2022-11-18T21:05:19.641Z,100.00
2022-11-18T21:07:49.213Z,100.00
2022-11-18T21:10:18.547Z,100.00
2022-11-18T21:13:00.887Z,100.00
2022-11-18T21:15:30.686Z,100.00
2022-11-18T21:17:59.218Z,100.00
2022-11-18T21:20:45.261Z,100.00
2022-11-18T21:23:14.088Z,100.00
2022-11-18T21:25:43.274Z,100.00
2022-11-18T21:28:12.505Z,100.00
2022-11-18T21:30:42.659Z,100.00
2022-11-18T21:33:11.178Z,100.00
2022-11-18T21:35:39.527Z,100.00
2022-11-18T21:38:07.971Z,100.00
2022-11-18T21:40:36.750Z,100.00
2022-11-18T21:43:05.220Z,100.00
2022-11-18T21:45:33.603Z,100.00
2022-11-18T21:48:03.336Z,100.00
2022-11-18T21:50:31.733Z,100.00
2022-11-18T21:53:00.146Z,100.00
2022-11-18T21:55:29.067Z,100.00
2022-11-18T21:58:02.663Z,100.00
2022-11-18T22:00:32.268Z,100.00
2022-11-18T22:03:02.074Z,100.00
2022-11-18T22:05:30.425Z,100.00
2022-11-18T22:07:58.798Z,100.00
2022-11-18T22:10:27.164Z,100.00
2022-11-18T22:12:55.562Z,100.00
2022-11-18T22:15:24.720Z,100.00
2022-11-18T22:17:53.196Z,100.00
2022-11-18T22:20:22.908Z,100.00
2022-11-18T22:22:51.335Z,100.00
2022-11-18T22:25:19.841Z,100.00
2022-11-18T22:27:48.403Z,100.00
2022-11-18T22:30:17.418Z,100.00
2022-11-18T22:32:45.795Z,100.00
2022-11-18T22:35:14.250Z,100.00
2022-11-18T22:37:44.472Z,100.00
2022-11-18T22:40:14.197Z,100.00
2022-11-18T22:42:48.794Z,100.00
2022-11-18T22:45:17.741Z,100.00
2022-11-18T22:47:46.137Z,100.00
2022-11-18T22:50:14.493Z,100.00
2022-11-18T22:52:44.555Z,100.00
2022-11-18T22:55:13.226Z,100.00
2022-11-18T22:57:41.586Z,100.00
2022-11-18T23:00:12.458Z,100.00
2022-11-18T23:02:40.899Z,100.00
2022-11-18T23:05:10.715Z,100.00
2022-11-18T23:07:39.113Z,100.00
2022-11-18T23:10:10.212Z,100.00
2022-11-18T23:12:56.320Z,100.00
2022-11-18T23:15:24.778Z,100.00
2022-11-18T23:17:53.215Z,100.00
2022-11-18T23:20:21.632Z,100.00
2022-11-18T23:22:50.034Z,100.00
2022-11-18T23:25:19.908Z,100.00
2022-11-18T23:27:51.664Z,100.00
2022-11-18T23:30:22.680Z,100.00
2022-11-18T23:32:53.855Z,100.00
2022-11-18T23:35:22.246Z,100.00
2022-11-18T23:37:50.558Z,100.00
2022-11-18T23:40:20.569Z,100.00
2022-11-18T23:42:49.033Z,100.00
2022-11-18T23:45:17.660Z,100.00
2022-11-18T23:47:46.018Z,100.00
2022-11-18T23:50:14.540Z,100.00
2022-11-18T23:52:43.182Z,100.00
2022-11-18T23:55:11.640Z,100.00
2022-11-18T23:57:43.310Z,100.00
